createdAt,value
2018-01-25T00:01:30.527Z,100071.60
2018-01-25T00:03:57.933Z,100057.78
2018-01-25T00:06:25.323Z,100066.92
2018-01-25T00:08:52.724Z,100073.04
2018-01-25T00:11:20.124Z,100076.99
2018-01-25T00:13:47.554Z,100072.84
2018-01-25T00:16:14.954Z,100095.79
2018-01-25T00:18:42.350Z,100128.39
2018-01-25T00:21:09.745Z,100125.39
2018-01-25T00:23:37.142Z,100133.52
2018-01-25T00:26:04.546Z,100149.48
2018-01-25T00:28:31.951Z,100158.69
2018-01-25T00:30:59.344Z,100165.78
2018-01-25T00:33:26.849Z,100168.58
2018-01-25T00:35:54.234Z,100180.25
2018-01-25T00:38:21.998Z,100184.98
2018-01-25T00:40:49.390Z,100187.28
2018-01-25T00:43:16.881Z,100189.69
2018-01-25T00:45:44.267Z,100193.41
2018-01-25T00:48:11.657Z,100194.62
2018-01-25T00:50:39.164Z,100198.81
2018-01-25T00:53:06.555Z,100183.77
2018-01-25T00:55:33.962Z,100186.61
2018-01-25T00:58:01.362Z,100182.93
2018-01-25T01:00:28.767Z,100187.25
2018-01-25T01:02:56.146Z,100189.41
2018-01-25T01:05:23.544Z,100173.93
2018-01-25T01:07:50.938Z,100189.61
2018-01-25T01:10:18.330Z,100187.41
2018-01-25T01:12:45.718Z,100172.81
2018-01-25T01:15:13.102Z,100176.75
2018-01-25T01:17:40.495Z,100185.34
2018-01-25T01:20:07.921Z,100188.05
2018-01-25T01:22:35.323Z,100187.38
2018-01-25T01:25:02.721Z,100185.20
2018-01-25T01:27:30.098Z,100206.17
2018-01-25T01:29:57.502Z,100209.03
2018-01-25T01:32:24.897Z,100189.25
2018-01-25T01:34:52.302Z,100198.86
2018-01-25T01:37:19.723Z,100206.19
2018-01-25T01:39:47.106Z,100210.92
2018-01-25T01:42:14.511Z,100216.67
2018-01-25T01:44:41.903Z,100216.02
2018-01-25T01:47:09.314Z,100224.05
2018-01-25T01:49:36.718Z,100225.31
2018-01-25T01:52:04.110Z,100229.11
2018-01-25T01:54:31.500Z,100217.82
2018-01-25T01:56:58.904Z,100213.81
2018-01-25T01:59:26.282Z,100212.70
2018-01-25T02:01:53.699Z,100210.63
2018-01-25T02:04:21.085Z,100212.02
2018-01-25T02:06:48.476Z,100224.55
2018-01-25T02:09:15.859Z,100226.06
2018-01-25T02:11:43.255Z,100221.72
2018-01-25T02:14:10.641Z,100227.63
2018-01-25T02:16:38.037Z,100235.11
2018-01-25T02:21:39.259Z,100223.22
2018-01-25T02:24:06.667Z,100239.37
2018-01-25T02:26:34.081Z,100239.94
2018-01-25T02:29:01.477Z,100246.00
2018-01-25T02:31:28.866Z,100250.30
2018-01-25T02:33:56.269Z,100261.56
2018-01-25T02:36:23.665Z,100273.35
2018-01-25T02:38:51.057Z,100266.05
2018-01-25T02:41:18.451Z,100250.36
2018-01-25T02:43:45.841Z,100254.06
2018-01-25T02:46:13.222Z,100268.52
2018-01-25T02:48:40.623Z,100263.55
2018-01-25T02:51:08.007Z,100264.97
2018-01-25T02:53:35.402Z,100259.81
2018-01-25T02:56:02.819Z,100258.80
2018-01-25T02:58:30.225Z,100267.41
2018-01-25T03:00:57.611Z,100258.25
2018-01-25T03:03:25.102Z,100264.80
2018-01-25T03:05:52.467Z,100267.08
2018-01-25T03:08:19.873Z,100262.43
2018-01-25T03:10:47.268Z,100260.20
2018-01-25T03:13:14.658Z,100260.81
2018-01-25T03:15:42.060Z,100271.24
2018-01-25T03:18:09.702Z,100272.65
2018-01-25T03:20:37.094Z,100268.17
2018-01-25T03:23:04.483Z,100258.01
2018-01-25T03:25:31.886Z,100251.27
2018-01-25T03:27:59.282Z,100255.33
2018-01-25T03:30:26.796Z,100259.06
2018-01-25T03:32:54.237Z,100268.22
2018-01-25T03:35:21.614Z,100270.11
2018-01-25T03:37:49.125Z,100286.70
2018-01-25T03:40:16.502Z,100304.60
2018-01-25T03:42:43.902Z,100327.94
2018-01-25T03:45:14.670Z,100341.00
2018-01-25T03:47:42.062Z,100345.32
2018-01-25T03:50:09.454Z,100343.67
2018-01-25T03:52:37.303Z,100331.21
2018-01-25T03:55:04.686Z,100335.16
2018-01-25T03:57:32.402Z,100331.35
2018-01-25T03:59:59.801Z,100328.30
2018-01-25T04:02:27.318Z,100335.98
2018-01-25T04:04:54.730Z,100317.85
2018-01-25T04:07:22.126Z,100323.22
2018-01-25T04:09:49.530Z,100317.89
2018-01-25T04:12:16.927Z,100327.92
2018-01-25T04:14:44.370Z,100325.80
2018-01-25T04:17:11.762Z,100333.15
2018-01-25T04:19:39.153Z,100329.03
2018-01-25T04:22:06.631Z,100333.74
2018-01-25T04:24:34.027Z,100339.09
2018-01-25T04:27:01.414Z,100344.97
2018-01-25T04:29:28.794Z,100342.82
2018-01-25T04:31:56.219Z,100351.94
2018-01-25T04:34:23.590Z,100343.67
2018-01-25T04:36:51.012Z,100348.33
2018-01-25T04:39:18.425Z,100343.95
2018-01-25T04:41:45.870Z,100344.16
2018-01-25T04:44:13.258Z,100334.36
2018-01-25T04:46:40.682Z,100343.14
2018-01-25T04:49:08.154Z,100342.23
2018-01-25T04:51:35.559Z,100355.52
2018-01-25T04:54:02.946Z,100341.25
2018-01-25T04:56:30.345Z,100340.13
2018-01-25T04:58:57.730Z,100340.94
2018-01-25T05:01:25.128Z,100336.45
2018-01-25T05:03:52.589Z,100336.31
2018-01-25T05:06:20.850Z,100332.61
2018-01-25T05:08:48.246Z,100329.69
2018-01-25T05:11:15.659Z,100334.38
2018-01-25T05:13:43.109Z,100339.30
2018-01-25T05:16:10.491Z,100340.89
2018-01-25T05:18:37.893Z,100347.95
2018-01-25T05:21:05.280Z,100358.67
2018-01-25T05:23:32.674Z,100353.57
2018-01-25T05:26:00.054Z,100358.83
2018-01-25T05:28:27.453Z,100361.78
2018-01-25T05:30:54.833Z,100364.08
2018-01-25T05:33:22.234Z,100374.84
2018-01-25T05:35:49.645Z,100383.61
2018-01-25T05:38:17.074Z,100388.27
2018-01-25T05:40:44.454Z,100399.21
2018-01-25T05:43:11.845Z,100384.20
2018-01-25T05:45:39.246Z,100394.00
2018-01-25T05:48:06.659Z,100402.69
2018-01-25T05:50:34.076Z,100394.13
2018-01-25T05:53:01.471Z,100406.33
2018-01-25T05:55:28.874Z,100412.38
2018-01-25T05:57:56.417Z,100412.33
2018-01-25T06:00:23.787Z,100412.12
2018-01-25T06:02:51.235Z,100411.02
2018-01-25T06:05:18.610Z,100401.48
2018-01-25T06:07:46.007Z,100408.22
2018-01-25T06:10:13.394Z,100409.48
2018-01-25T06:12:40.783Z,100413.47
2018-01-25T06:15:08.179Z,100411.13
2018-01-25T06:17:35.555Z,100425.69
2018-01-25T06:20:02.952Z,100434.59
2018-01-25T06:22:30.410Z,100433.37
2018-01-25T06:24:57.850Z,100431.84
2018-01-25T06:27:25.239Z,100445.08
2018-01-25T06:29:53.483Z,100438.00
2018-01-25T06:32:20.963Z,100447.58
2018-01-25T06:34:48.364Z,100450.72
2018-01-25T06:37:15.751Z,100452.38
2018-01-25T06:39:43.138Z,100440.66
2018-01-25T06:42:10.530Z,100441.36
2018-01-25T06:44:37.914Z,100446.17
2018-01-25T06:47:05.309Z,100448.86
2018-01-25T06:49:32.694Z,100452.44
2018-01-25T06:52:00.096Z,100456.04
2018-01-25T06:54:27.523Z,100458.72
2018-01-25T06:56:54.905Z,100461.84
2018-01-25T06:59:22.277Z,100461.67
2018-01-25T07:01:49.691Z,100468.08
2018-01-25T07:04:17.108Z,100471.59
2018-01-25T07:06:44.493Z,100468.63
2018-01-25T07:09:11.903Z,100471.84
2018-01-25T07:11:39.311Z,100474.13
2018-01-25T07:14:06.711Z,100475.76
2018-01-25T07:16:34.110Z,100476.86
2018-01-25T07:19:01.499Z,100470.08
2018-01-25T07:21:28.914Z,100477.86
2018-01-25T07:23:56.298Z,100484.73
2018-01-25T07:26:23.686Z,100481.20
2018-01-25T07:28:51.073Z,100482.78
2018-01-25T07:31:18.566Z,100489.00
2018-01-25T07:33:45.950Z,100488.05
2018-01-25T07:36:13.347Z,100481.64
2018-01-25T07:38:40.729Z,100477.95
2018-01-25T07:41:08.163Z,100475.77
2018-01-25T07:43:35.554Z,100485.99
2018-01-25T07:46:02.954Z,100487.70
2018-01-25T07:48:30.330Z,100485.86
2018-01-25T07:50:57.730Z,100494.01
2018-01-25T07:53:25.130Z,100482.86
2018-01-25T07:55:52.523Z,100486.48
2018-01-25T07:58:23.859Z,100481.47
2018-01-25T08:00:51.237Z,100483.97
2018-01-25T08:03:18.655Z,100482.98
2018-01-25T08:05:46.063Z,100490.97
2018-01-25T08:08:13.463Z,100498.77
2018-01-25T08:10:40.854Z,100492.42
2018-01-25T08:13:13.905Z,100492.97
2018-01-25T08:15:41.285Z,100504.18
2018-01-25T08:18:08.712Z,100504.55
2018-01-25T08:20:36.090Z,100497.48
2018-01-25T08:23:03.499Z,100504.07
2018-01-25T08:25:30.934Z,100511.36
2018-01-25T08:27:58.289Z,100508.37
2018-01-25T08:30:25.678Z,100498.78
2018-01-25T08:32:53.106Z,100501.36
2018-01-25T08:35:20.472Z,100499.81
2018-01-25T08:37:47.900Z,100500.25
2018-01-25T08:40:15.295Z,100502.06
2018-01-25T08:42:43.458Z,100502.63
2018-01-25T08:45:10.903Z,100507.27
2018-01-25T08:47:38.291Z,100503.48
2018-01-25T08:50:05.775Z,100496.78
2018-01-25T08:52:33.187Z,100501.30
2018-01-25T08:55:00.587Z,100504.86
2018-01-25T08:57:27.970Z,100504.16
2018-01-25T08:59:55.412Z,100504.78
2018-01-25T09:02:22.767Z,100503.70
2018-01-25T09:04:50.206Z,100506.33
2018-01-25T09:07:17.636Z,100498.44
2018-01-25T09:09:44.993Z,100502.56
2018-01-25T09:12:12.406Z,100505.26
2018-01-25T09:14:39.802Z,100497.09
2018-01-25T09:17:07.289Z,100497.75
2018-01-25T09:19:34.709Z,100503.12
2018-01-25T09:22:02.108Z,100512.44
2018-01-25T09:24:29.503Z,100512.42
2018-01-25T09:26:56.907Z,100516.98
2018-01-25T09:29:24.308Z,100507.13
2018-01-25T09:31:51.834Z,100507.92
2018-01-25T09:34:19.236Z,100512.88
2018-01-25T09:36:46.647Z,100520.38
2018-01-25T09:39:14.090Z,100518.33
2018-01-25T09:41:41.506Z,100529.69
2018-01-25T09:44:08.910Z,100525.70
2018-01-25T09:46:36.302Z,100528.08
2018-01-25T09:49:03.703Z,100533.38
2018-01-25T09:51:31.107Z,100540.23
2018-01-25T09:53:58.523Z,100535.16
2018-01-25T09:56:25.974Z,100533.28
2018-01-25T09:58:53.390Z,100536.28
2018-01-25T10:01:20.788Z,100530.44
2018-01-25T10:03:48.204Z,100529.13
2018-01-25T10:06:15.594Z,100541.53
2018-01-25T10:08:43.064Z,100533.30
2018-01-25T10:11:10.458Z,100544.63
2018-01-25T10:13:37.899Z,100540.72
2018-01-25T10:16:05.299Z,100542.07
2018-01-25T10:18:32.728Z,100539.84
2018-01-25T10:21:00.131Z,100538.81
2018-01-25T10:23:27.539Z,100546.88
2018-01-25T10:25:54.931Z,100547.55
2018-01-25T10:28:22.418Z,100546.56
2018-01-25T10:30:49.822Z,100538.55
2018-01-25T10:33:17.235Z,100558.91
2018-01-25T10:35:44.672Z,100546.73
2018-01-25T10:38:12.075Z,100552.79
2018-01-25T10:40:39.471Z,100548.55
2018-01-25T10:43:06.890Z,100542.28
2018-01-25T10:48:00.991Z,100533.58
2018-01-25T10:50:28.386Z,100532.58
2018-01-25T10:52:55.800Z,100533.41
2018-01-25T10:55:23.204Z,100535.10
2018-01-25T10:57:50.606Z,100536.58
2018-01-25T11:00:18.010Z,100532.03
2018-01-25T11:02:45.426Z,100531.69
2018-01-25T11:05:12.825Z,100535.25
2018-01-25T11:07:40.223Z,100531.83
2018-01-25T11:10:07.734Z,100526.38
2018-01-25T11:12:35.135Z,100535.50
2018-01-25T11:15:02.564Z,100536.22
2018-01-25T11:17:29.995Z,100537.84
2018-01-25T11:19:57.401Z,100540.79
2018-01-25T11:22:24.799Z,100541.36
2018-01-25T11:24:52.198Z,100548.67
2018-01-25T11:27:19.590Z,100545.33
2018-01-25T11:29:46.995Z,100536.90
2018-01-25T11:32:14.391Z,100541.52
2018-01-25T11:34:41.785Z,100542.93
2018-01-25T11:37:09.190Z,100543.69
2018-01-25T11:39:36.610Z,100535.86
2018-01-25T11:42:04.002Z,100530.18
2018-01-25T11:44:31.422Z,100528.31
2018-01-25T11:46:58.822Z,100526.75
2018-01-25T11:49:26.227Z,100523.41
2018-01-25T11:51:53.634Z,100528.92
2018-01-25T11:54:21.031Z,100517.48
2018-01-25T11:56:48.438Z,100523.84
2018-01-25T11:59:15.832Z,100525.08
2018-01-25T12:01:43.231Z,100522.75
2018-01-25T12:04:10.644Z,100525.55
2018-01-25T12:06:38.059Z,100531.83
2018-01-25T12:09:05.451Z,100540.34
2018-01-25T12:11:32.854Z,100535.08
2018-01-25T12:14:00.343Z,100532.45
2018-01-25T12:16:27.804Z,100531.50
2018-01-25T12:18:55.190Z,100533.37
2018-01-25T12:21:22.589Z,100536.72
2018-01-25T12:23:49.982Z,100530.70
2018-01-25T12:26:17.385Z,100528.67
2018-01-25T12:28:44.795Z,100532.11
2018-01-25T12:31:12.183Z,100524.41
2018-01-25T12:33:39.582Z,100518.45
2018-01-25T12:36:07.999Z,100510.77
2018-01-25T12:38:35.421Z,100502.13
2018-01-25T12:41:02.811Z,100501.63
2018-01-25T12:43:30.234Z,100500.67
2018-01-25T12:45:57.636Z,100508.28
2018-01-25T12:48:25.033Z,100506.36
2018-01-25T12:50:52.426Z,100507.77
2018-01-25T12:53:19.851Z,100504.52
2018-01-25T12:55:47.261Z,100491.58
2018-01-25T12:58:14.669Z,100485.16
2018-01-25T13:00:42.056Z,100491.34
2018-01-25T13:03:09.454Z,100507.85
2018-01-25T13:05:36.869Z,100495.41
2018-01-25T13:08:04.248Z,100499.50
2018-01-25T13:10:31.657Z,100493.04
2018-01-25T13:12:59.062Z,100491.42
2018-01-25T13:15:26.455Z,100484.13
2018-01-25T13:17:53.910Z,100488.68
2018-01-25T13:20:21.306Z,100481.23
2018-01-25T13:22:48.711Z,100469.88
2018-01-25T13:25:16.102Z,100468.83
2018-01-25T13:27:43.514Z,100471.00
2018-01-25T13:30:10.935Z,100475.43
2018-01-25T13:32:38.337Z,100476.44
2018-01-25T13:35:05.730Z,100480.97
2018-01-25T13:37:33.129Z,100485.45
2018-01-25T13:40:00.544Z,100486.68
2018-01-25T13:42:27.950Z,100482.02
2018-01-25T13:44:55.358Z,100490.20
2018-01-25T13:47:22.759Z,100484.40
2018-01-25T13:49:50.168Z,100480.07
2018-01-25T13:52:23.247Z,100478.72
2018-01-25T13:54:50.755Z,100473.63
2018-01-25T13:57:18.144Z,100480.84
2018-01-25T13:59:45.546Z,100483.60
2018-01-25T14:02:12.947Z,100482.20
2018-01-25T14:04:40.355Z,100488.09
2018-01-25T14:07:07.758Z,100484.30
2018-01-25T14:09:35.179Z,100487.10
2018-01-25T14:12:02.596Z,100486.56
2018-01-25T14:14:29.987Z,100483.05
2018-01-25T14:16:57.369Z,100482.84
2018-01-25T14:19:24.766Z,100483.63
2018-01-25T14:21:52.162Z,100477.70
2018-01-25T14:24:19.560Z,100470.91
2018-01-25T14:26:46.964Z,100479.35
2018-01-25T14:29:14.358Z,100469.92
2018-01-25T14:31:41.762Z,100472.56
2018-01-25T14:34:09.166Z,100476.65
2018-01-25T14:36:36.670Z,100468.18
2018-01-25T14:39:04.071Z,100472.08
2018-01-25T14:41:31.490Z,100473.77
2018-01-25T14:43:58.891Z,100471.21
2018-01-25T14:46:26.401Z,100472.14
2018-01-25T14:48:53.812Z,100464.20
2018-01-25T14:51:21.317Z,100461.63
2018-01-25T14:53:48.718Z,100455.49
2018-01-25T14:56:16.124Z,100456.60
2018-01-25T14:58:43.511Z,100450.48
2018-01-25T15:01:10.914Z,100446.20
2018-01-25T15:03:38.328Z,100451.53
2018-01-25T15:06:05.701Z,100458.52
2018-01-25T15:08:33.119Z,100453.68
2018-01-25T15:11:00.523Z,100456.66
2018-01-25T15:13:28.081Z,100453.38
2018-01-25T15:15:55.477Z,100467.65
2018-01-25T15:18:22.873Z,100475.89
2018-01-25T15:20:50.338Z,100471.88
2018-01-25T15:23:17.744Z,100468.04
2018-01-25T15:25:50.689Z,100464.18
2018-01-25T15:28:18.104Z,100468.75
2018-01-25T15:30:45.506Z,100477.83
2018-01-25T15:33:12.902Z,100480.64
2018-01-25T15:35:40.299Z,100472.19
2018-01-25T15:38:07.712Z,100473.02
2018-01-25T15:40:35.121Z,100471.44
2018-01-25T15:43:02.535Z,100472.00
2018-01-25T15:45:29.933Z,100470.23
2018-01-25T15:47:57.333Z,100460.41
2018-01-25T15:50:24.735Z,100464.36
2018-01-25T15:52:52.141Z,100465.48
2018-01-25T15:55:19.543Z,100470.34
2018-01-25T15:57:46.967Z,100476.28
2018-01-25T16:00:14.454Z,100481.59
2018-01-25T16:02:41.862Z,100485.14
2018-01-25T16:05:09.258Z,100483.02
2018-01-25T16:07:36.672Z,100473.16
2018-01-25T16:10:04.078Z,100469.91
2018-01-25T16:12:31.488Z,100472.88
2018-01-25T16:14:58.894Z,100469.36
2018-01-25T16:17:26.278Z,100487.50
2018-01-25T16:19:53.683Z,100488.53
2018-01-25T16:22:21.069Z,100491.72
2018-01-25T16:24:48.490Z,100492.20
2018-01-25T16:27:15.905Z,100490.86
2018-01-25T16:29:43.322Z,100485.06
2018-01-25T16:32:10.718Z,100494.64
2018-01-25T16:34:38.126Z,100494.25
2018-01-25T16:37:05.522Z,100496.19
2018-01-25T16:39:32.921Z,100490.97
2018-01-25T16:42:00.348Z,100493.07
2018-01-25T16:44:27.752Z,100488.95
2018-01-25T16:46:55.180Z,100487.56
2018-01-25T16:49:22.552Z,100477.02
2018-01-25T16:51:50.067Z,100470.55
2018-01-25T16:54:17.478Z,100471.79
2018-01-25T16:56:44.891Z,100464.16
2018-01-25T16:59:12.283Z,100463.16
2018-01-25T17:01:39.702Z,100467.87
2018-01-25T17:04:07.086Z,100468.44
2018-01-25T17:06:34.487Z,100472.97
2018-01-25T17:09:01.877Z,100487.33
2018-01-25T17:11:29.302Z,100504.27
2018-01-25T17:13:56.702Z,100501.52
2018-01-25T17:16:24.089Z,100524.66
2018-01-25T17:18:51.495Z,100529.27
2018-01-25T17:21:18.910Z,100531.39
2018-01-25T17:23:46.322Z,100534.41
2018-01-25T17:26:13.718Z,100528.70
2018-01-25T17:28:41.216Z,100530.14
2018-01-25T17:31:08.602Z,100541.16
2018-01-25T17:33:36.047Z,100542.59
2018-01-25T17:36:03.441Z,100541.02
2018-01-25T17:38:30.842Z,100536.92
2018-01-25T17:40:58.240Z,100539.98
2018-01-25T17:43:25.643Z,100542.85
2018-01-25T17:45:53.141Z,100536.36
2018-01-25T17:48:20.568Z,100530.07
2018-01-25T17:50:47.955Z,100529.65
2018-01-25T17:53:15.398Z,100536.72
2018-01-25T17:55:42.859Z,100533.98
2018-01-25T17:58:10.295Z,100520.63
2018-01-25T18:00:37.685Z,100514.27
2018-01-25T18:03:05.090Z,100515.61
2018-01-25T18:05:32.488Z,100514.77
2018-01-25T18:07:59.892Z,100508.41
2018-01-25T18:10:27.294Z,100506.55
2018-01-25T18:12:54.688Z,100510.28
2018-01-25T18:15:22.094Z,100510.70
2018-01-25T18:17:49.522Z,100519.00
2018-01-25T18:20:16.915Z,100519.98
2018-01-25T18:22:44.342Z,100517.48
2018-01-25T18:25:11.736Z,100523.48
2018-01-25T18:27:39.136Z,100513.93
2018-01-25T18:30:06.521Z,100525.13
2018-01-25T18:32:33.925Z,100520.60
2018-01-25T18:35:01.366Z,100520.30
2018-01-25T18:37:28.759Z,100526.89
2018-01-25T18:39:56.188Z,100526.98
2018-01-25T18:42:23.574Z,100532.02
2018-01-25T18:44:50.975Z,100537.72
2018-01-25T18:47:18.379Z,100531.71
2018-01-25T18:49:45.791Z,100522.73
2018-01-25T18:52:13.202Z,100518.77
2018-01-25T18:54:40.698Z,100517.63
2018-01-25T18:57:08.101Z,100517.23
2018-01-25T18:59:35.607Z,100514.92
2018-01-25T19:02:03.074Z,100519.31
2018-01-25T19:04:30.469Z,100526.56
2018-01-25T19:06:57.861Z,100532.31
2018-01-25T19:09:25.255Z,100527.10
2018-01-25T19:11:52.655Z,100522.86
2018-01-25T19:14:20.057Z,100524.70
2018-01-25T19:16:47.453Z,100527.83
2018-01-25T19:19:14.879Z,100540.33
2018-01-25T19:21:42.258Z,100540.97
2018-01-25T19:24:09.659Z,100542.70
2018-01-25T19:26:37.073Z,100539.51
2018-01-25T19:29:04.470Z,100534.36
2018-01-25T19:31:31.949Z,100536.38
2018-01-25T19:33:59.403Z,100528.32
2018-01-25T19:36:26.802Z,100531.01
2018-01-25T19:38:54.702Z,100524.08
2018-01-25T19:41:22.102Z,100518.42
2018-01-25T19:43:49.503Z,100535.71
2018-01-25T19:46:16.916Z,100530.78
2018-01-25T19:48:44.304Z,100522.91
2018-01-25T19:51:11.698Z,100525.97
2018-01-25T19:53:39.102Z,100522.81
2018-01-25T19:56:06.534Z,100520.01
2018-01-25T19:58:33.950Z,100530.14
2018-01-25T20:01:01.355Z,100525.28
2018-01-25T20:03:28.744Z,100522.98
2018-01-25T20:05:57.110Z,100522.36
2018-01-25T20:08:24.503Z,100519.30
2018-01-25T20:10:51.915Z,100525.97
2018-01-25T20:13:19.336Z,100523.61
2018-01-25T20:15:46.749Z,100520.92
2018-01-25T20:18:14.249Z,100521.59
2018-01-25T20:20:41.919Z,100523.55
2018-01-25T20:23:09.379Z,100526.92
2018-01-25T20:25:36.753Z,100525.88
2018-01-25T20:28:04.215Z,100525.30
2018-01-25T20:30:31.605Z,100525.30
2018-01-25T20:32:59.010Z,100520.09
2018-01-25T20:35:26.394Z,100518.41
2018-01-25T20:37:53.811Z,100513.20
2018-01-25T20:40:21.330Z,100528.55
2018-01-25T20:42:48.737Z,100527.63
2018-01-25T20:45:16.128Z,100530.32
2018-01-25T20:47:43.522Z,100532.10
2018-01-25T20:50:10.925Z,100524.69
2018-01-25T20:52:38.454Z,100535.22
2018-01-25T20:55:05.973Z,100536.95
2018-01-25T20:57:33.370Z,100534.55
2018-01-25T21:00:00.866Z,100532.50
2018-01-25T21:02:28.334Z,100541.72
2018-01-25T21:04:55.754Z,100536.41
2018-01-25T21:07:23.177Z,100533.33
2018-01-25T21:09:51.544Z,100531.72
2018-01-25T21:12:18.949Z,100537.72
2018-01-25T21:14:46.366Z,100537.41
2018-01-25T21:17:13.767Z,100542.41
2018-01-25T21:19:41.159Z,100540.62
2018-01-25T21:22:08.563Z,100547.79
2018-01-25T21:24:35.989Z,100535.95
2018-01-25T21:27:03.382Z,100544.49
2018-01-25T21:29:30.782Z,100542.41
2018-01-25T21:31:58.178Z,100534.70
2018-01-25T21:34:25.633Z,100543.50
2018-01-25T21:36:53.023Z,100538.02
2018-01-25T21:39:20.424Z,100542.28
2018-01-25T21:41:47.887Z,100544.08
2018-01-25T21:44:15.278Z,100549.63
2018-01-25T21:46:42.745Z,100550.91
2018-01-25T21:49:10.128Z,100555.53
2018-01-25T21:51:37.518Z,100557.03
2018-01-25T21:54:04.912Z,100558.54
2018-01-25T21:56:32.313Z,100557.34
2018-01-25T21:58:59.707Z,100557.09
2018-01-25T22:01:27.094Z,100556.13
2018-01-25T22:03:54.478Z,100563.09
2018-01-25T22:06:21.896Z,100565.52
2018-01-25T22:08:49.287Z,100565.16
2018-01-25T22:11:16.696Z,100571.30
2018-01-25T22:13:44.079Z,100563.47
2018-01-25T22:16:11.478Z,100560.20
2018-01-25T22:18:38.876Z,100568.67
2018-01-25T22:21:06.276Z,100572.16
2018-01-25T22:23:33.695Z,100569.23
2018-01-25T22:26:01.086Z,100579.94
2018-01-25T22:28:28.486Z,100577.36
2018-01-25T22:30:55.881Z,100573.20
2018-01-25T22:33:23.276Z,100566.86
2018-01-25T22:35:50.670Z,100565.05
2018-01-25T22:38:18.062Z,100563.16
2018-01-25T22:40:45.460Z,100565.09
2018-01-25T22:43:12.845Z,100567.62
2018-01-25T22:45:40.305Z,100572.30
2018-01-25T22:48:07.783Z,100571.45
2018-01-25T22:50:35.185Z,100570.73
2018-01-25T22:53:02.586Z,100567.34
2018-01-25T22:55:29.987Z,100576.44
2018-01-25T22:57:57.378Z,100576.97
2018-01-25T23:00:36.506Z,100586.59
2018-01-25T23:03:03.898Z,100585.40
2018-01-25T23:05:31.307Z,100581.70
2018-01-25T23:07:58.802Z,100580.17
2018-01-25T23:10:26.213Z,100585.52
2018-01-25T23:12:53.641Z,100590.69
2018-01-25T23:15:21.045Z,100591.95
2018-01-25T23:17:48.450Z,100596.29
2018-01-25T23:20:15.917Z,100597.36
2018-01-25T23:22:43.318Z,100604.98
2018-01-25T23:25:10.778Z,100606.20
2018-01-25T23:27:38.171Z,100610.05
2018-01-25T23:30:05.573Z,100605.10
2018-01-25T23:32:32.971Z,100601.89
2018-01-25T23:35:00.377Z,100603.44
2018-01-25T23:37:27.762Z,100602.30
2018-01-25T23:39:55.176Z,100595.31
2018-01-25T23:42:22.570Z,100591.93
2018-01-25T23:44:49.993Z,100601.06
2018-01-25T23:47:17.376Z,100597.80
2018-01-25T23:49:44.771Z,100596.61
2018-01-25T23:52:12.174Z,100597.98
2018-01-25T23:54:39.570Z,100597.64
2018-01-25T23:57:06.958Z,100600.43
2018-01-25T23:59:34.361Z,100595.50
